Impacts METAR Board
IDs:

KSEA - Seattle-Tacoma Intl, WA, US

Updated at: 0300 UTC 06 Dec 2019
Potential Impact None Slight Moderate High
Time 05/15Z 05/16Z 05/17Z 05/18Z 05/19Z 05/20Z 05/21Z 05/22Z 05/23Z 06/00Z 06/01Z 06/02Z 06/03Z
Temp46 46 46 47 47 48 50 51 50 50 48 48 46
Dewpt42 42 42 42 42 43 43 44 43 43 43 43 42
Altim29.99 30.01 30.02 30.03 30.04 30.05 30.05 30.04 30.03 30.03 30.03 30.01 30.02
VIS2 2 3 3 3 5 7 8 7 7 8 8 7
CIG3 5 5 5 5 8 60 85 250 250 50 42 47
CoverOVCOVCOVCOVCOVCOVCOVCBKNBKNBKNBKNBKNBKN
FltCatLIFRIFRIFRIFRIFRIFRVFRVFRVFRVFRVFRVFRVFR
WXBRBRBRHZHZHZ--------------
WDir201040102800020027001600270
WSpd10 8 4 3 5 0 0 3 5 0 4 0 4
WGst-- -- -- -- -- -- -- -- -- -- -- -- --
Raw hourly METARs
KSEA 051453Z 02010KT 2SM BR BKN003 OVC007 08/06 A2999 RMK AO2 SFC VIS 3 SLP163 T00780056 53005
KSEA 051553Z 01008KT 2SM BR OVC005 08/06 A3001 RMK AO2 SFC VIS 3 SLP169 T00780056
KSEA 051653Z 04004KT 3SM BR BKN005 OVC060 08/06 A3002 RMK AO2 SLP175 T00780056
KSEA 051753Z 01003KT 3SM HZ OVC005 08/06 A3003 RMK AO2 SLP178 T00830056 10083 20072 51015
KSEA 051853Z 28005KT 3SM HZ OVC005 08/06 A3004 RMK AO2 SFC VIS 4 SLP181 T00830056
KSEA 051953Z 00000KT 5SM HZ OVC008 09/06 A3005 RMK AO2 SLP182 T00890061
KSEA 052053Z 00000KT 7SM SCT008 OVC060 10/06 A3005 RMK AO2 SLP182 T01000061 51004
KSEA 052153Z 20003KT 8SM SCT009 BKN085 BKN130 11/07 A3004 RMK AO2 SLP180 T01060067
KSEA 052253Z 27005KT 7SM FEW012 SCT090 BKN250 10/06 A3003 RMK AO2 SLP178 T01000061
KSEA 052353Z 00000KT 7SM FEW046 SCT120 BKN250 10/06 A3003 RMK AO2 SLP177 T01000061 10111 20083 56005
KSEA 060053Z 16004KT 8SM SCT039 BKN050 BKN250 09/06 A3003 RMK AO2 SLP175 T00890061
KSEA 060153Z 00000KT 8SM BKN042 BKN090 09/06 A3001 RMK AO2 SLP171 T00890061
KSEA 060253Z 27004KT 7SM BKN047 BKN085 08/06 A3002 RMK AO2 SLP174 T00780056 55004



Page loaded:  03:42 UTC  |   07:42 PM Pacific  |   08:42 PM Mountain  |   09:42 PM Central  |   10:42 PM Eastern

 

ADVISORIES

FORECASTS

FORECASTS

OBSERVATIONS

USER TOOLS

ABOUT US